createdAt,value
2018-02-02T00:00:26.620Z,0
2018-02-02T00:01:26.775Z,0
2018-02-02T00:02:26.273Z,0
2018-02-02T00:03:26.019Z,0
2018-02-02T00:04:26.483Z,0
2018-02-02T00:05:26.477Z,0
2018-02-02T00:06:26.230Z,0
2018-02-02T00:07:26.751Z,0
2018-02-02T00:08:26.225Z,0
2018-02-02T00:09:26.474Z,0
2018-02-02T00:10:25.978Z,0
2018-02-02T00:11:25.920Z,0
2018-02-02T00:12:26.670Z,0
2018-02-02T00:13:26.316Z,0
2018-02-02T00:14:25.889Z,0
2018-02-02T00:15:26.136Z,0
2018-02-02T00:16:26.368Z,0
2018-02-02T00:17:26.607Z,0
2018-02-02T00:18:26.601Z,0
2018-02-02T00:19:26.134Z,0
2018-02-02T00:20:26.575Z,0
2018-02-02T00:21:26.067Z,0
2018-02-02T00:22:26.563Z,0
2018-02-02T00:23:26.069Z,0
2018-02-02T00:24:26.547Z,0
2018-02-02T00:25:26.290Z,0
2018-02-02T00:26:26.312Z,0
2018-02-02T00:27:26.275Z,0
2018-02-02T00:28:26.021Z,0
2018-02-02T00:29:26.254Z,0
2018-02-02T00:30:26.086Z,0
2018-02-02T00:31:26.245Z,0
2018-02-02T00:32:25.968Z,0
2018-02-02T00:33:26.220Z,0
2018-02-02T00:34:25.959Z,0
2018-02-02T00:35:26.478Z,0
2018-02-02T00:36:26.426Z,0
2018-02-02T00:37:26.423Z,0
2018-02-02T00:38:26.147Z,0
2018-02-02T00:39:25.883Z,0
2018-02-02T00:40:25.925Z,0
2018-02-02T00:41:26.124Z,0
2018-02-02T00:42:25.877Z,0
2018-02-02T00:43:25.844Z,0
2018-02-02T00:44:25.836Z,0
2018-02-02T00:45:26.106Z,0
2018-02-02T00:46:26.082Z,0
2018-02-02T00:47:25.808Z,0
2018-02-02T00:48:25.791Z,0
2018-02-02T00:49:26.056Z,0
2018-02-02T00:50:25.776Z,0
2018-02-02T00:51:26.018Z,0
2018-02-02T00:52:26.294Z,0
2018-02-02T00:53:26.015Z,0
2018-02-02T00:54:25.996Z,0
2018-02-02T00:55:25.730Z,0
2018-02-02T00:56:25.986Z,0
2018-02-02T00:57:26.244Z,0
2018-02-02T00:58:25.968Z,0
2018-02-02T00:59:26.014Z,0
2018-02-02T01:00:25.668Z,0
2018-02-02T01:01:25.913Z,0
2018-02-02T01:02:25.903Z,0
2018-02-02T01:03:25.643Z,0
2018-02-02T01:04:25.915Z,0
2018-02-02T01:05:25.619Z,0
2018-02-02T01:06:25.615Z,0
2018-02-02T01:07:25.867Z,0
2018-02-02T01:08:25.845Z,0
2018-02-02T01:09:26.145Z,0
2018-02-02T01:10:25.888Z,0
2018-02-02T01:11:26.087Z,0
2018-02-02T01:12:25.796Z,0
2018-02-02T01:13:25.837Z,0
2018-02-02T01:14:25.590Z,0
2018-02-02T01:15:25.783Z,0
2018-02-02T01:16:26.041Z,0
2018-02-02T01:17:25.749Z,0
2018-02-02T01:18:25.735Z,0
2018-02-02T01:19:25.733Z,0
2018-02-02T01:20:25.751Z,0
2018-02-02T01:21:25.709Z,0
2018-02-02T01:22:25.741Z,0
2018-02-02T01:23:25.442Z,0
2018-02-02T01:24:25.680Z,0
2018-02-02T01:25:25.964Z,0
2018-02-02T01:26:25.399Z,0
2018-02-02T01:27:25.657Z,0
2018-02-02T01:28:25.391Z,0
2018-02-02T01:29:25.625Z,0
2018-02-02T01:30:25.411Z,0
2018-02-02T01:31:25.356Z,0
2018-02-02T01:32:25.603Z,0
2018-02-02T01:33:25.850Z,0
2018-02-02T01:34:25.827Z,0
2018-02-02T01:35:25.814Z,0
2018-02-02T01:36:25.554Z,0
2018-02-02T01:37:25.552Z,0
2018-02-02T01:38:25.283Z,0
2018-02-02T01:39:25.321Z,0
2018-02-02T01:40:25.608Z,0
2018-02-02T01:41:25.325Z,0
2018-02-02T01:42:25.233Z,0
2018-02-02T01:43:25.727Z,0
2018-02-02T01:44:25.719Z,0
2018-02-02T01:45:25.548Z,0
2018-02-02T01:46:25.446Z,0
2018-02-02T01:47:25.180Z,0
2018-02-02T01:48:25.462Z,0
2018-02-02T01:49:25.411Z,0
2018-02-02T01:50:25.399Z,0
2018-02-02T01:51:25.258Z,0
2018-02-02T01:52:25.390Z,0
2018-02-02T01:53:25.119Z,0
2018-02-02T01:54:25.619Z,0
2018-02-02T01:55:25.666Z,0
2018-02-02T01:56:25.093Z,0
2018-02-02T01:57:25.591Z,0
2018-02-02T01:58:25.579Z,0
2018-02-02T01:59:25.315Z,0
2018-02-02T02:00:25.302Z,0
2018-02-02T02:01:25.033Z,0
2018-02-02T02:02:25.276Z,0
2018-02-02T02:03:25.514Z,0
2018-02-02T02:04:25.271Z,0
2018-02-02T02:05:25.532Z,0
2018-02-02T02:06:25.235Z,0
2018-02-02T02:07:24.753Z,0
2018-02-02T02:08:25.465Z,0
2018-02-02T02:09:25.451Z,0
2018-02-02T02:10:25.530Z,0
2018-02-02T02:11:25.475Z,0
2018-02-02T02:12:25.172Z,0
2018-02-02T02:13:25.159Z,0
2018-02-02T02:14:25.421Z,0
2018-02-02T02:15:25.220Z,0
2018-02-02T02:16:25.174Z,0
2018-02-02T02:17:24.868Z,0
2018-02-02T02:18:25.105Z,0
2018-02-02T02:19:25.369Z,0
2018-02-02T02:20:25.086Z,0
2018-02-02T02:21:25.398Z,0
2018-02-02T02:22:25.324Z,0
2018-02-02T02:23:24.811Z,0
2018-02-02T02:24:25.300Z,0
2018-02-02T02:25:25.035Z,0
2018-02-02T02:26:25.027Z,0
2018-02-02T02:27:25.020Z,0
2018-02-02T02:28:25.255Z,0
2018-02-02T02:29:25.002Z,0
2018-02-02T02:30:24.982Z,0
2018-02-02T02:31:24.993Z,0
2018-02-02T02:32:24.727Z,0
2018-02-02T02:33:24.950Z,0
2018-02-02T02:34:24.944Z,0
2018-02-02T02:35:25.196Z,0
2018-02-02T02:36:25.181Z,0
2018-02-02T02:37:24.910Z,0
2018-02-02T02:38:24.976Z,0
2018-02-02T02:39:24.914Z,0
2018-02-02T02:40:25.256Z,0
2018-02-02T02:41:24.962Z,0
2018-02-02T02:42:24.870Z,0
2018-02-02T02:43:25.106Z,0
2018-02-02T02:44:25.087Z,0
2018-02-02T02:45:24.847Z,0
2018-02-02T02:46:25.071Z,0
2018-02-02T02:47:25.107Z,0
2018-02-02T02:48:24.819Z,0
2018-02-02T02:49:25.040Z,0
2018-02-02T02:50:25.033Z,0
2018-02-02T02:51:25.028Z,0
2018-02-02T02:52:24.776Z,0
2018-02-02T02:53:24.760Z,0
2018-02-02T02:54:24.508Z,0
2018-02-02T02:55:25.028Z,0
2018-02-02T02:56:24.723Z,0
2018-02-02T02:57:24.990Z,0
2018-02-02T02:58:24.702Z,0
2018-02-02T02:59:24.701Z,0
2018-02-02T03:00:24.446Z,0
2018-02-02T03:01:24.661Z,0
2018-02-02T03:02:24.901Z,0
2018-02-02T03:03:24.893Z,0
2018-02-02T03:04:24.888Z,0
2018-02-02T03:05:24.961Z,0
2018-02-02T03:06:24.869Z,0
2018-02-02T03:07:24.867Z,0
2018-02-02T03:08:24.344Z,0
2018-02-02T03:09:24.580Z,0
2018-02-02T03:10:24.653Z,0
2018-02-02T03:11:24.864Z,0
2018-02-02T03:12:24.557Z,0
2018-02-02T03:13:24.558Z,0
2018-02-02T03:14:24.277Z,0
2018-02-02T03:15:24.279Z,0
2018-02-02T03:16:24.774Z,0
2018-02-02T03:17:24.517Z,0
2018-02-02T03:18:24.511Z,0
2018-02-02T03:19:23.969Z,0
2018-02-02T03:20:24.504Z,0
2018-02-02T03:21:24.709Z,0
2018-02-02T03:22:24.449Z,0
2018-02-02T03:23:24.450Z,0
2018-02-02T03:24:24.687Z,0
2018-02-02T03:25:24.707Z,0
2018-02-02T03:26:24.398Z,0
2018-02-02T03:27:24.646Z,0
2018-02-02T03:28:24.139Z,0
2018-02-02T03:29:24.390Z,0
2018-02-02T03:30:24.392Z,0
2018-02-02T03:31:24.391Z,0
2018-02-02T03:32:24.600Z,0
2018-02-02T03:33:24.583Z,0
2018-02-02T03:34:24.368Z,0
2018-02-02T03:35:24.615Z,0
2018-02-02T03:36:24.047Z,0
2018-02-02T03:37:24.033Z,0
2018-02-02T03:38:24.273Z,0
2018-02-02T03:39:24.529Z,0
2018-02-02T03:40:24.345Z,0
2018-02-02T03:41:24.004Z,0
2018-02-02T03:42:24.240Z,0
2018-02-02T03:43:24.486Z,0
2018-02-02T03:44:24.213Z,0
2018-02-02T03:45:23.700Z,0
2018-02-02T03:46:23.942Z,0
2018-02-02T03:47:24.438Z,0
2018-02-02T03:48:23.927Z,0
2018-02-02T03:49:24.165Z,0
2018-02-02T03:50:24.429Z,0
2018-02-02T03:51:24.164Z,0
2018-02-02T03:52:23.878Z,0
2018-02-02T03:53:24.383Z,0
2018-02-02T03:54:24.117Z,0
2018-02-02T03:55:24.114Z,0
2018-02-02T03:56:24.110Z,0
2018-02-02T03:57:24.076Z,0
2018-02-02T03:58:23.815Z,0
2018-02-02T03:59:24.057Z,0
2018-02-02T04:00:24.093Z,0
2018-02-02T04:01:23.798Z,0
2018-02-02T04:02:24.047Z,0
2018-02-02T04:03:24.013Z,0
2018-02-02T04:04:23.998Z,0
2018-02-02T04:05:24.254Z,0
2018-02-02T04:06:23.976Z,0
2018-02-02T04:07:23.977Z,0
2018-02-02T04:08:23.956Z,0
2018-02-02T04:09:24.204Z,0
2018-02-02T04:10:23.753Z,0
2018-02-02T04:11:23.928Z,0
2018-02-02T04:12:23.921Z,0
2018-02-02T04:13:23.663Z,0
2018-02-02T04:14:23.893Z,0
2018-02-02T04:15:23.706Z,0
2018-02-02T04:16:23.873Z,0
2018-02-02T04:17:23.859Z,0
2018-02-02T04:18:23.847Z,0
2018-02-02T04:19:24.100Z,0
2018-02-02T04:20:24.078Z,0
2018-02-02T04:21:23.565Z,0
2018-02-02T04:22:23.554Z,0
2018-02-02T04:23:24.058Z,0
2018-02-02T04:24:23.790Z,0
2018-02-02T04:25:24.084Z,0
2018-02-02T04:26:24.019Z,0
2018-02-02T04:27:23.758Z,0
2018-02-02T04:28:23.762Z,0
2018-02-02T04:29:23.484Z,0
2018-02-02T04:30:23.471Z,0
2018-02-02T04:31:23.723Z,0
2018-02-02T04:32:23.706Z,0
2018-02-02T04:33:23.710Z,0
2018-02-02T04:34:23.685Z,0
2018-02-02T04:35:23.469Z,0
2018-02-02T04:36:23.665Z,0
2018-02-02T04:37:23.950Z,0
2018-02-02T04:38:23.881Z,0
2018-02-02T04:39:23.627Z,0
2018-02-02T04:40:23.625Z,0
2018-02-02T04:41:23.610Z,0
2018-02-02T04:42:23.600Z,0
2018-02-02T04:43:23.827Z,0
2018-02-02T04:44:23.579Z,0
2018-02-02T04:45:23.331Z,0
2018-02-02T04:46:23.300Z,0
2018-02-02T04:47:23.794Z,0
2018-02-02T04:48:23.869Z,0
2018-02-02T04:49:23.012Z,0
2018-02-02T04:50:23.287Z,0
2018-02-02T04:51:23.743Z,0
2018-02-02T04:52:23.736Z,0
2018-02-02T04:53:23.734Z,0
2018-02-02T04:54:23.455Z,0
2018-02-02T04:55:23.492Z,0
2018-02-02T04:56:23.185Z,0
2018-02-02T04:57:23.424Z,0
2018-02-02T04:58:23.423Z,0
2018-02-02T04:59:23.404Z,0
2018-02-02T05:00:23.649Z,0
2018-02-02T05:01:23.378Z,0
2018-02-02T05:02:23.632Z,0
2018-02-02T05:03:23.619Z,0
2018-02-02T05:04:23.599Z,0
2018-02-02T05:05:23.602Z,0
2018-02-02T05:06:23.324Z,0
2018-02-02T05:07:23.319Z,0
2018-02-02T05:08:23.052Z,0
2018-02-02T05:09:23.315Z,0
2018-02-02T05:10:23.534Z,0
2018-02-02T05:11:23.281Z,0
2018-02-02T05:12:23.267Z,0
2018-02-02T05:13:22.997Z,0
2018-02-02T05:14:23.233Z,0
2018-02-02T05:15:23.310Z,0
2018-02-02T05:16:23.218Z,0
2018-02-02T05:17:23.281Z,0
2018-02-02T05:18:23.227Z,0
2018-02-02T05:19:23.193Z,0
2018-02-02T05:20:23.193Z,0
2018-02-02T05:21:23.179Z,0
2018-02-02T05:22:22.653Z,0
2018-02-02T05:23:23.138Z,0
2018-02-02T05:24:22.873Z,0
2018-02-02T05:25:23.081Z,0
2018-02-02T05:26:23.360Z,0
2018-02-02T05:27:23.355Z,0
2018-02-02T05:28:23.107Z,0
2018-02-02T05:29:23.326Z,0
2018-02-02T05:30:22.814Z,0
2018-02-02T05:31:22.548Z,0
2018-02-02T05:32:22.797Z,0
2018-02-02T05:33:23.039Z,0
2018-02-02T05:34:22.770Z,0
2018-02-02T05:35:23.577Z,0
2018-02-02T05:36:23.248Z,0
2018-02-02T05:37:23.237Z,0
2018-02-02T05:38:22.979Z,0
2018-02-02T05:39:23.235Z,0
2018-02-02T05:40:23.257Z,0
2018-02-02T05:41:22.945Z,0
2018-02-02T05:42:23.188Z,0
2018-02-02T05:43:22.933Z,0
2018-02-02T05:44:22.912Z,0
2018-02-02T05:45:22.906Z,0
2018-02-02T05:46:23.140Z,0
2018-02-02T05:47:23.121Z,0
2018-02-02T05:48:23.120Z,0
2018-02-02T05:49:22.863Z,0
2018-02-02T05:50:23.098Z,0
2018-02-02T05:51:23.111Z,0
2018-02-02T05:52:22.814Z,0
2018-02-02T05:53:22.803Z,0
2018-02-02T05:54:23.054Z,0
2018-02-02T05:55:23.106Z,0
2018-02-02T05:56:23.044Z,0
2018-02-02T05:57:22.546Z,0
2018-02-02T05:58:22.752Z,0
2018-02-02T05:59:22.513Z,0
2018-02-02T06:00:23.102Z,0
2018-02-02T06:01:22.468Z,0
2018-02-02T06:02:22.704Z,0
2018-02-02T06:03:22.443Z,0
2018-02-02T06:04:22.686Z,0
2018-02-02T06:05:22.607Z,0
2018-02-02T06:06:22.406Z,0
2018-02-02T06:07:22.895Z,0
2018-02-02T06:08:22.992Z,0
2018-02-02T06:09:22.878Z,0
2018-02-02T06:10:22.832Z,0
2018-02-02T06:11:22.858Z,0
2018-02-02T06:12:22.852Z,0
2018-02-02T06:13:22.836Z,0
2018-02-02T06:14:22.584Z,0
2018-02-02T06:23:25.306Z,4
2018-02-02T06:24:25.314Z,0
2018-02-02T06:25:25.237Z,4
2018-02-02T06:26:25.290Z,4
2018-02-02T06:27:25.266Z,4
2018-02-02T06:28:24.981Z,4
2018-02-02T06:29:24.726Z,4
2018-02-02T06:30:25.045Z,8
2018-02-02T06:31:25.213Z,12
2018-02-02T06:32:24.689Z,12
2018-02-02T06:33:24.927Z,16
2018-02-02T06:34:25.230Z,16
2018-02-02T06:35:24.908Z,20
2018-02-02T06:36:24.910Z,24
2018-02-02T06:37:25.136Z,28
2018-02-02T06:38:24.863Z,28
2018-02-02T06:39:24.869Z,36
2018-02-02T06:40:25.088Z,44
2018-02-02T06:41:24.582Z,44
2018-02-02T06:42:24.815Z,56
2018-02-02T06:43:24.554Z,64
2018-02-02T06:44:24.539Z,72
2018-02-02T06:45:24.847Z,84
2018-02-02T06:46:24.761Z,92
2018-02-02T06:47:24.750Z,104
2018-02-02T06:48:24.990Z,116
2018-02-02T06:49:24.978Z,132
2018-02-02T06:50:24.760Z,144
2018-02-02T06:51:24.981Z,164
2018-02-02T06:52:24.685Z,180
2018-02-02T06:53:24.447Z,196
2018-02-02T06:54:24.688Z,220
2018-02-02T06:55:25.006Z,236
2018-02-02T06:56:24.646Z,260
2018-02-02T06:57:24.890Z,284
2018-02-02T06:58:24.647Z,312
2018-02-02T06:59:24.868Z,336
2018-02-02T07:00:24.711Z,360
2018-02-02T07:01:24.334Z,388
2018-02-02T07:02:24.578Z,416
2018-02-02T07:03:24.577Z,448
2018-02-02T07:04:24.545Z,476
2018-02-02T07:05:24.536Z,508
2018-02-02T07:06:24.530Z,536
2018-02-02T07:07:24.776Z,568
2018-02-02T07:08:24.758Z,600
2018-02-02T07:09:24.491Z,628
2018-02-02T07:10:24.225Z,660
2018-02-02T07:11:24.213Z,692
2018-02-02T07:12:24.456Z,728
2018-02-02T07:13:24.189Z,756
2018-02-02T07:14:24.687Z,780
2018-02-02T07:15:24.420Z,812
2018-02-02T07:16:24.153Z,852
2018-02-02T07:17:24.399Z,896
2018-02-02T07:18:24.140Z,940
2018-02-02T07:19:24.625Z,984
2018-02-02T07:20:23.862Z,1020
2018-02-02T07:21:24.098Z,1056
2018-02-02T07:22:24.590Z,1088
2018-02-02T07:23:24.092Z,1140
2018-02-02T07:24:24.072Z,1204
2018-02-02T07:25:24.355Z,1260
2018-02-02T07:26:24.542Z,1256
2018-02-02T07:27:24.290Z,1208
2018-02-02T07:28:24.030Z,1256
2018-02-02T07:29:24.278Z,1328
2018-02-02T07:30:24.261Z,1392
2018-02-02T07:31:24.237Z,1432
2018-02-02T07:32:24.239Z,1460
2018-02-02T07:33:23.981Z,1472
2018-02-02T07:34:24.221Z,1480
2018-02-02T07:35:24.454Z,1492
2018-02-02T07:36:24.464Z,1512
2018-02-02T07:37:23.978Z,1516
2018-02-02T07:38:23.944Z,1544
2018-02-02T07:39:24.157Z,1528
2018-02-02T07:40:24.248Z,1496
2018-02-02T07:41:24.409Z,1500
2018-02-02T07:42:23.880Z,1524
2018-02-02T07:43:23.869Z,1568
2018-02-02T07:44:23.897Z,1612
2018-02-02T07:45:24.269Z,1648
2018-02-02T07:46:24.349Z,1708
2018-02-02T07:47:24.078Z,1760
2018-02-02T07:48:24.071Z,1788
2018-02-02T07:49:24.303Z,1784
2018-02-02T07:50:23.808Z,1784
2018-02-02T07:51:23.529Z,1796
2018-02-02T07:52:23.771Z,1812
2018-02-02T07:53:24.017Z,1824
2018-02-02T07:54:24.006Z,1852
2018-02-02T07:55:23.992Z,1900
2018-02-02T07:56:23.744Z,1932
2018-02-02T07:57:24.234Z,1984
2018-02-02T07:58:23.967Z,2012
2018-02-02T07:59:24.214Z,2024
2018-02-02T08:00:23.643Z,2056
2018-02-02T08:01:23.934Z,2120
2018-02-02T08:02:24.182Z,2180
2018-02-02T08:03:23.665Z,2224
2018-02-02T08:04:23.905Z,2272
2018-02-02T08:05:24.230Z,2292
2018-02-02T08:06:23.642Z,2352
2018-02-02T08:07:23.624Z,2416
2018-02-02T08:08:23.885Z,2436
2018-02-02T08:09:23.914Z,2464
2018-02-02T08:10:23.848Z,2476
2018-02-02T08:11:24.097Z,2480
2018-02-02T08:12:24.080Z,2472
2018-02-02T08:13:23.852Z,2492
2018-02-02T08:14:24.064Z,2496
2018-02-02T08:15:24.084Z,2512
2018-02-02T08:16:23.805Z,2568
2018-02-02T08:17:23.798Z,2596
2018-02-02T08:18:23.787Z,2584
2018-02-02T08:19:23.788Z,2584
2018-02-02T08:20:23.586Z,2588
2018-02-02T08:21:23.750Z,2628
2018-02-02T08:22:23.486Z,2708
2018-02-02T08:23:23.989Z,2756
2018-02-02T08:24:23.747Z,2792
2018-02-02T08:25:23.560Z,2828
2018-02-02T08:26:23.697Z,2892
2018-02-02T08:27:23.682Z,2936
2018-02-02T08:28:23.678Z,2948
2018-02-02T08:29:23.411Z,2972
2018-02-02T08:30:23.428Z,2952
2018-02-02T08:31:23.913Z,2940
2018-02-02T08:32:23.392Z,2992
2018-02-02T08:33:23.906Z,3012
2018-02-02T08:34:23.634Z,3044
2018-02-02T08:35:23.621Z,3112
2018-02-02T08:36:23.632Z,3164
2018-02-02T08:37:23.347Z,3204
2018-02-02T08:38:23.600Z,3276
2018-02-02T08:39:23.322Z,3276
2018-02-02T08:40:23.572Z,3380
2018-02-02T08:41:23.584Z,3184
2018-02-02T08:42:23.558Z,4044
2018-02-02T08:43:23.311Z,3784
2018-02-02T08:44:23.800Z,4456
2018-02-02T08:45:23.355Z,4512
2018-02-02T08:46:23.532Z,3568
2018-02-02T08:47:23.511Z,3564
2018-02-02T08:48:23.514Z,4880
2018-02-02T08:49:23.502Z,4924
2018-02-02T08:50:23.231Z,5012
2018-02-02T08:51:23.219Z,5052
2018-02-02T08:52:22.964Z,5108
2018-02-02T08:53:23.203Z,5176
2018-02-02T08:54:23.852Z,5328
2018-02-02T08:55:23.446Z,5464
2018-02-02T08:56:23.177Z,4272
2018-02-02T08:57:23.176Z,5648
2018-02-02T08:58:23.677Z,5528
2018-02-02T08:59:23.408Z,4404
2018-02-02T09:00:23.415Z,5808
2018-02-02T09:01:23.143Z,5900
2018-02-02T09:02:23.141Z,5832
2018-02-02T09:03:23.118Z,6068
2018-02-02T09:04:24.424Z,5296
2018-02-02T09:05:23.607Z,5580
2018-02-02T09:06:23.361Z,5828
2018-02-02T09:07:22.834Z,4960
2018-02-02T09:08:23.590Z,5808
2018-02-02T09:09:23.631Z,5612
2018-02-02T09:10:23.348Z,5492
2018-02-02T09:11:23.061Z,5184
2018-02-02T09:12:23.307Z,5108
2018-02-02T09:13:23.289Z,4976
2018-02-02T09:14:23.319Z,4936
2018-02-02T09:15:23.327Z,5188
2018-02-02T09:16:23.271Z,5116
2018-02-02T09:17:23.280Z,4796
2018-02-02T09:18:23.258Z,4716
2018-02-02T09:19:23.256Z,4788
2018-02-02T09:20:23.270Z,4764
2018-02-02T09:21:22.985Z,4616
2018-02-02T09:22:22.978Z,4564
2018-02-02T09:23:23.256Z,4532
2018-02-02T09:24:23.573Z,4504
2018-02-02T09:25:23.221Z,4476
2018-02-02T09:26:22.980Z,4420
2018-02-02T09:27:23.192Z,4352
2018-02-02T09:28:23.195Z,4316
2018-02-02T09:29:23.454Z,4264
2018-02-02T09:30:23.204Z,4272
2018-02-02T09:31:22.919Z,4308
2018-02-02T09:32:23.409Z,4384
2018-02-02T09:33:23.161Z,4472
2018-02-02T09:34:23.398Z,4544
2018-02-02T09:35:23.224Z,4564
2018-02-02T09:36:23.124Z,4600
2018-02-02T09:37:23.385Z,4568
2018-02-02T09:38:22.620Z,4540
2018-02-02T09:39:23.366Z,4496
2018-02-02T09:40:23.305Z,4472
2018-02-02T09:41:23.084Z,4464
2018-02-02T09:42:22.828Z,4424
2018-02-02T09:43:22.573Z,4380
2018-02-02T09:44:23.324Z,4396
2018-02-02T09:45:23.272Z,4380
2018-02-02T09:46:23.055Z,4412
2018-02-02T09:47:23.295Z,4428
2018-02-02T09:48:23.042Z,4452
2018-02-02T09:49:22.783Z,4436
2018-02-02T09:50:23.280Z,4408
2018-02-02T09:51:23.264Z,4372
2018-02-02T09:52:22.797Z,4332
2018-02-02T09:53:22.744Z,4324
2018-02-02T09:54:22.748Z,4296
2018-02-02T09:55:23.049Z,4296
2018-02-02T09:56:22.997Z,4320
2018-02-02T09:57:22.718Z,4316
2018-02-02T09:58:22.966Z,4280
2018-02-02T09:59:22.711Z,4236
2018-02-02T10:00:23.444Z,4172
2018-02-02T10:01:22.946Z,4104
2018-02-02T10:02:22.939Z,4028
2018-02-02T10:03:23.185Z,3976
2018-02-02T10:04:22.415Z,3944
2018-02-02T10:05:23.060Z,3932
2018-02-02T10:06:22.664Z,3892
2018-02-02T10:07:23.154Z,3788
2018-02-02T10:08:22.650Z,3740
2018-02-02T10:09:22.900Z,3792
2018-02-02T10:10:23.234Z,3872
2018-02-02T10:11:22.869Z,3960
2018-02-02T10:12:22.616Z,4056
2018-02-02T10:13:22.612Z,4144
2018-02-02T10:14:22.613Z,4200
2018-02-02T10:15:22.779Z,4308
2018-02-02T10:16:22.588Z,4432
2018-02-02T10:17:22.852Z,4508
2018-02-02T10:18:23.135Z,4572
2018-02-02T10:19:22.821Z,4656
2018-02-02T10:20:23.263Z,4712
2018-02-02T10:21:23.072Z,4764
2018-02-02T10:22:22.802Z,4836
2018-02-02T10:53:01.984Z,4716
2018-02-02T10:54:02.217Z,4744
2018-02-02T10:55:02.462Z,4808
2018-02-02T10:56:02.445Z,4900
2018-02-02T10:57:02.172Z,5080
2018-02-02T10:58:01.915Z,5332
2018-02-02T10:59:02.409Z,5588
2018-02-02T11:00:02.507Z,5780
2018-02-02T11:01:02.133Z,5792
2018-02-02T11:02:02.396Z,5748
2018-02-02T11:03:02.368Z,5864
2018-02-02T11:04:02.108Z,5928
2018-02-02T11:05:02.358Z,5804
2018-02-02T11:06:02.369Z,5740
2018-02-02T11:07:02.330Z,5776
2018-02-02T11:08:02.076Z,5940
2018-02-02T11:09:02.087Z,6072
2018-02-02T11:10:02.331Z,6072
2018-02-02T11:11:02.118Z,5912
2018-02-02T11:12:01.795Z,5728
2018-02-02T11:13:02.078Z,5472
2018-02-02T11:14:02.076Z,5276
2018-02-02T11:15:02.267Z,5044
2018-02-02T11:16:02.033Z,4836
2018-02-02T11:17:01.996Z,4524
2018-02-02T11:18:01.997Z,4396
2018-02-02T11:19:01.726Z,4328
2018-02-02T11:20:01.467Z,4280
2018-02-02T11:21:01.968Z,4224
2018-02-02T11:22:02.208Z,4200
2018-02-02T11:23:02.204Z,4268
2018-02-02T11:24:01.710Z,4356
2018-02-02T11:25:01.943Z,4496
2018-02-02T11:26:01.927Z,4656
2018-02-02T11:27:02.212Z,4740
2018-02-02T11:28:01.946Z,4776
2018-02-02T11:29:01.713Z,4780
2018-02-02T11:30:01.659Z,4772
2018-02-02T11:31:01.988Z,4744
2018-02-02T11:32:01.898Z,4744
2018-02-02T11:33:02.154Z,4648
2018-02-02T11:34:01.882Z,4540
2018-02-02T11:35:01.870Z,4384
2018-02-02T11:36:02.142Z,4204
2018-02-02T11:37:01.354Z,4120
2018-02-02T11:38:01.848Z,4036
2018-02-02T11:39:01.891Z,3884
2018-02-02T11:40:01.592Z,3888
2018-02-02T11:41:01.573Z,3876
2018-02-02T11:42:02.133Z,3828
2018-02-02T11:43:01.564Z,3884
2018-02-02T11:44:02.130Z,3952
2018-02-02T11:45:01.555Z,3920
2018-02-02T11:46:02.120Z,3852
2018-02-02T11:47:01.817Z,3900
2018-02-02T11:48:01.783Z,3988
2018-02-02T11:49:01.519Z,3952
2018-02-02T11:50:01.514Z,3836
2018-02-02T11:51:02.017Z,3872
2018-02-02T11:52:02.014Z,4096
2018-02-02T11:53:02.001Z,4392
2018-02-02T11:54:01.738Z,4580
2018-02-02T11:55:01.487Z,4688
2018-02-02T11:56:01.481Z,4748
2018-02-02T11:57:01.970Z,4888
2018-02-02T11:58:01.743Z,5044
2018-02-02T11:59:01.449Z,5180
2018-02-02T12:00:01.976Z,5360
2018-02-02T12:01:01.439Z,5360
2018-02-02T12:02:01.684Z,5200
2018-02-02T12:03:01.432Z,5076
2018-02-02T12:04:01.673Z,4788
2018-02-02T12:05:01.672Z,4700
2018-02-02T12:06:01.405Z,4824
2018-02-02T12:07:01.657Z,4812
2018-02-02T12:08:02.157Z,4764
2018-02-02T12:09:01.637Z,4732
2018-02-02T12:10:01.417Z,4756
2018-02-02T12:11:01.436Z,4876
2018-02-02T12:12:01.499Z,4996
2018-02-02T12:13:01.869Z,5092
2018-02-02T12:14:01.353Z,5040
2018-02-02T12:15:01.354Z,4996
2018-02-02T12:16:01.605Z,4884
2018-02-02T12:17:01.347Z,4856
2018-02-02T12:18:01.580Z,4696
2018-02-02T12:19:01.322Z,4588
2018-02-02T12:20:01.326Z,4660
2018-02-02T12:21:01.814Z,4728
2018-02-02T12:22:01.573Z,4624
2018-02-02T12:23:01.823Z,4524
2018-02-02T12:24:01.550Z,4436
2018-02-02T12:25:01.791Z,4168
2018-02-02T12:26:01.795Z,3676
2018-02-02T12:27:01.803Z,3232
2018-02-02T12:28:01.278Z,3028
2018-02-02T12:29:01.771Z,3004
2018-02-02T12:30:01.250Z,3100
2018-02-02T12:31:01.246Z,3176
2018-02-02T12:32:01.249Z,3296
2018-02-02T12:33:01.750Z,3436
2018-02-02T12:34:01.749Z,3532
2018-02-02T12:35:01.799Z,3576
2018-02-02T12:36:01.728Z,3460
2018-02-02T12:37:01.214Z,3268
2018-02-02T12:38:01.465Z,3212
2018-02-02T12:39:01.448Z,3280
2018-02-02T12:40:01.451Z,3348
2018-02-02T12:41:01.447Z,3360
2018-02-02T12:42:01.693Z,3376
2018-02-02T12:43:01.461Z,3552
2018-02-02T12:44:01.163Z,3812
2018-02-02T12:45:01.412Z,4004
2018-02-02T12:46:01.660Z,4124
2018-02-02T12:47:01.434Z,4056
2018-02-02T12:48:01.400Z,3980
2018-02-02T12:49:01.643Z,3928
2018-02-02T12:50:01.140Z,3888
2018-02-02T12:51:01.413Z,4040
2018-02-02T12:52:01.121Z,4256
2018-02-02T12:53:01.676Z,4384
2018-02-02T12:54:01.110Z,4396
2018-02-02T12:55:01.653Z,4388
2018-02-02T12:56:01.603Z,4472
2018-02-02T12:57:01.337Z,4632
2018-02-02T12:58:01.335Z,4748
2018-02-02T12:59:01.334Z,4844
2018-02-02T13:00:01.388Z,5044
2018-02-02T13:01:00.835Z,5280
2018-02-02T13:02:01.158Z,5540
2018-02-02T13:03:01.299Z,5764
2018-02-02T13:04:01.545Z,5760
2018-02-02T13:05:01.532Z,5572
2018-02-02T13:06:01.537Z,5184
2018-02-02T13:07:01.535Z,4964
2018-02-02T13:08:01.372Z,5200
2018-02-02T13:09:01.294Z,5668
2018-02-02T13:10:01.527Z,6252
2018-02-02T13:11:01.012Z,6176
2018-02-02T13:12:01.274Z,6484
2018-02-02T13:13:00.745Z,7108
2018-02-02T13:14:00.988Z,7208
2018-02-02T13:15:01.473Z,7096
2018-02-02T13:16:01.271Z,6564
2018-02-02T13:17:01.489Z,5508
2018-02-02T13:18:00.966Z,5084
2018-02-02T13:19:01.465Z,4752
2018-02-02T13:20:01.210Z,4556
2018-02-02T13:21:01.192Z,4420
2018-02-02T13:22:00.932Z,4336
2018-02-02T13:23:01.196Z,4264
2018-02-02T13:24:01.182Z,4160
2018-02-02T13:25:01.178Z,3900
2018-02-02T13:26:00.928Z,3632
2018-02-02T13:27:00.928Z,3488
2018-02-02T13:28:00.939Z,3464
2018-02-02T13:29:00.896Z,3476
2018-02-02T13:30:00.944Z,3428
2018-02-02T13:31:01.155Z,3412
2018-02-02T13:32:00.898Z,3484
2018-02-02T13:33:01.116Z,3588
2018-02-02T13:34:01.131Z,3652
2018-02-02T13:35:00.606Z,3644
2018-02-02T13:36:01.367Z,3620
2018-02-02T13:37:01.105Z,3616
2018-02-02T13:38:01.106Z,3624
2018-02-02T13:39:01.354Z,3604
2018-02-02T13:40:01.092Z,3568
2018-02-02T13:41:01.126Z,3544
2018-02-02T13:42:01.350Z,3516
2018-02-02T13:43:01.055Z,3504
2018-02-02T13:44:01.063Z,3520
2018-02-02T13:45:01.320Z,3532
2018-02-02T13:46:00.781Z,3560
2018-02-02T13:47:01.046Z,3636
2018-02-02T13:48:01.313Z,3760
2018-02-02T13:49:01.054Z,3832
2018-02-02T13:50:00.761Z,3868
2018-02-02T13:51:01.275Z,3904
2018-02-02T13:52:00.508Z,3944
2018-02-02T13:53:00.988Z,3948
2018-02-02T13:54:00.771Z,3900
2018-02-02T13:55:00.731Z,3908
2018-02-02T13:56:01.261Z,3960
2018-02-02T13:57:00.996Z,4016
2018-02-02T13:58:01.232Z,3960
2018-02-02T13:59:00.987Z,3920
2018-02-02T14:00:01.232Z,3896
2018-02-02T14:01:00.691Z,3900
2018-02-02T14:02:01.226Z,3968
2018-02-02T14:03:00.938Z,4012
2018-02-02T14:04:00.684Z,3988
2018-02-02T14:05:01.186Z,4036
2018-02-02T14:06:00.411Z,4120
2018-02-02T14:07:00.657Z,4140
2018-02-02T14:08:01.169Z,4132
2018-02-02T14:09:01.155Z,4132
2018-02-02T14:10:01.179Z,4168
2018-02-02T14:11:00.884Z,4164
2018-02-02T14:12:00.648Z,4096
2018-02-02T14:13:01.142Z,4048
2018-02-02T14:14:00.618Z,4068
2018-02-02T14:15:00.618Z,4080
2018-02-02T14:16:01.123Z,4020
2018-02-02T14:17:00.856Z,4000
2018-02-02T14:18:00.850Z,4000
2018-02-02T14:19:01.157Z,4184
2018-02-02T14:20:00.826Z,4032
2018-02-02T14:21:00.817Z,3912
2018-02-02T14:22:00.569Z,3796
2018-02-02T14:23:00.815Z,4152
2018-02-02T14:24:00.854Z,4088
2018-02-02T14:25:00.794Z,3976
2018-02-02T14:26:00.534Z,3880
2018-02-02T14:27:01.044Z,3760
2018-02-02T14:28:01.026Z,3648
2018-02-02T14:29:00.789Z,3572
2018-02-02T14:30:00.259Z,3500
2018-02-02T14:31:01.023Z,3432
2018-02-02T14:32:00.751Z,3368
2018-02-02T14:33:01.006Z,3312
2018-02-02T14:34:00.483Z,3324
2018-02-02T14:35:00.479Z,3364
2018-02-02T14:36:00.578Z,3364